Etusivu
METAR-TAF:

METAR-TAF

Lentoasemat :

Lleida-Alguaire

Lleida, Espanja

Leveyspiiri: 41-43-40N, Pituuspiiri: 000-32-09E, korkeus merenpinnasta: 350 m

Tämänhetkinen sää

Tämä raportti tehtiin 25 minuuttia sitten, kello 16.00 UTC
Tuuli 18 kn idästä/koillisesta
Lämpötila 20°C
Kosteus 83%
Ilmanpaine 1010 hPa
Näkyvyys 10 km tai enemmän
Muutamia pilviä 3000 ft:n korkeudessa

METAR: LEDA 141600Z 07018KT 9999 FEW030 20/17 Q1010

Aika: 18:25 (16:25 UTC)


TAF: puuttuu

Säähavainnot ja -ennusteet yli 4000 lentoasemalta (METAR- ja TAF-raportit).

Käytössä olevat sääasemat on merkitty karttaan keltaisilla ja punaisilla pisteillä.

Aseta hiiri pisteen päälle nähdäksesi sääaseman nimen.

Klikkaa sitten nähdäksesi säähavainnot ja -ennusteet.

Kartan vaihtaminen: klikkaa mustalla rastilla varustettuja vihreitä pisteitä, niin voit zoomata sisään; viivalla varustettua vihreää pistettä, niin voit zoomata ulos tai vihreitä nuolia, niin pääset viereisille kartoille.


METAR-TAF: